sensor_id;sensor_type;location;lat;lon;timestamp;P1;durP1;ratioP1;P2;durP2;ratioP2
57303;SDS011;43150;50.986;18.208;2023-03-17T00:02:23;29.20;;;13.10;;
57303;SDS011;43150;50.986;18.208;2023-03-17T00:04:50;26.60;;;13.10;;
57303;SDS011;43150;50.986;18.208;2023-03-17T00:07:16;24.30;;;11.70;;
57303;SDS011;43150;50.986;18.208;2023-03-17T00:09:42;25.70;;;12.90;;
57303;SDS011;43150;50.986;18.208;2023-03-17T00:12:09;23.10;;;11.60;;
57303;SDS011;43150;50.986;18.208;2023-03-17T00:14:35;29.10;;;11.80;;
57303;SDS011;43150;50.986;18.208;2023-03-17T00:17:01;31.30;;;14.30;;
57303;SDS011;43150;50.986;18.208;2023-03-17T00:19:28;25.40;;;13.00;;
57303;SDS011;43150;50.986;18.208;2023-03-17T00:21:57;27.60;;;11.90;;
57303;SDS011;43150;50.986;18.208;2023-03-17T00:24:24;22.60;;;12.00;;
57303;SDS011;43150;50.986;18.208;2023-03-17T00:26:50;22.80;;;11.60;;
57303;SDS011;43150;50.986;18.208;2023-03-17T00:29:15;24.90;;;13.40;;
57303;SDS011;43150;50.986;18.208;2023-03-17T00:31:41;22.00;;;11.90;;
57303;SDS011;43150;50.986;18.208;2023-03-17T00:34:13;26.30;;;12.90;;
57303;SDS011;43150;50.986;18.208;2023-03-17T00:36:39;25.60;;;12.20;;
57303;SDS011;43150;50.986;18.208;2023-03-17T00:39:08;28.10;;;11.50;;
57303;SDS011;43150;50.986;18.208;2023-03-17T00:41:37;28.00;;;12.30;;
57303;SDS011;43150;50.986;18.208;2023-03-17T00:44:02;24.10;;;11.00;;
57303;SDS011;43150;50.986;18.208;2023-03-17T00:46:29;22.70;;;13.40;;
57303;SDS011;43150;50.986;18.208;2023-03-17T00:49:05;27.70;;;11.80;;
57303;SDS011;43150;50.986;18.208;2023-03-17T00:51:34;26.70;;;12.30;;
57303;SDS011;43150;50.986;18.208;2023-03-17T00:54:00;22.50;;;10.80;;
57303;SDS011;43150;50.986;18.208;2023-03-17T00:56:26;20.90;;;11.30;;
57303;SDS011;43150;50.986;18.208;2023-03-17T00:58:52;21.80;;;10.80;;
57303;SDS011;43150;50.986;18.208;2023-03-17T01:01:18;27.80;;;12.80;;
57303;SDS011;43150;50.986;18.208;2023-03-17T01:03:44;23.60;;;11.80;;
57303;SDS011;43150;50.986;18.208;2023-03-17T01:06:10;25.20;;;11.10;;
57303;SDS011;43150;50.986;18.208;2023-03-17T01:08:37;27.20;;;11.80;;
57303;SDS011;43150;50.986;18.208;2023-03-17T01:11:03;25.60;;;12.10;;
57303;SDS011;43150;50.986;18.208;2023-03-17T01:13:29;27.00;;;12.90;;
57303;SDS011;43150;50.986;18.208;2023-03-17T01:15:55;41.20;;;14.50;;
57303;SDS011;43150;50.986;18.208;2023-03-17T01:18:22;35.00;;;13.40;;
57303;SDS011;43150;50.986;18.208;2023-03-17T01:20:50;32.00;;;14.50;;
57303;SDS011;43150;50.986;18.208;2023-03-17T01:23:15;27.40;;;10.80;;
57303;SDS011;43150;50.986;18.208;2023-03-17T01:25:42;29.40;;;12.60;;
57303;SDS011;43150;50.986;18.208;2023-03-17T01:28:09;22.20;;;10.80;;
57303;SDS011;43150;50.986;18.208;2023-03-17T01:30:38;20.40;;;9.80;;
57303;SDS011;43150;50.986;18.208;2023-03-17T01:33:04;20.20;;;11.10;;
57303;SDS011;43150;50.986;18.208;2023-03-17T01:35:31;21.00;;;10.00;;
57303;SDS011;43150;50.986;18.208;2023-03-17T01:37:57;22.40;;;10.40;;
57303;SDS011;43150;50.986;18.208;2023-03-17T01:40:24;20.00;;;9.00;;
57303;SDS011;43150;50.986;18.208;2023-03-17T01:42:59;19.80;;;10.40;;
57303;SDS011;43150;50.986;18.208;2023-03-17T01:48:10;19.30;;;9.60;;
57303;SDS011;43150;50.986;18.208;2023-03-17T01:50:36;21.50;;;12.40;;
57303;SDS011;43150;50.986;18.208;2023-03-17T01:53:02;17.90;;;9.10;;
57303;SDS011;43150;50.986;18.208;2023-03-17T01:55:28;22.80;;;11.00;;
57303;SDS011;43150;50.986;18.208;2023-03-17T01:57:55;23.80;;;12.30;;
57303;SDS011;43150;50.986;18.208;2023-03-17T02:00:22;20.00;;;9.90;;
57303;SDS011;43150;50.986;18.208;2023-03-17T02:02:49;22.40;;;10.50;;
57303;SDS011;43150;50.986;18.208;2023-03-17T02:05:17;29.80;;;12.10;;
57303;SDS011;43150;50.986;18.208;2023-03-17T02:07:44;23.10;;;11.60;;
57303;SDS011;43150;50.986;18.208;2023-03-17T02:10:10;29.50;;;12.90;;
57303;SDS011;43150;50.986;18.208;2023-03-17T02:12:37;21.60;;;11.90;;
57303;SDS011;43150;50.986;18.208;2023-03-17T02:15:04;25.50;;;11.40;;
57303;SDS011;43150;50.986;18.208;2023-03-17T02:17:33;24.30;;;12.70;;
57303;SDS011;43150;50.986;18.208;2023-03-17T02:22:41;26.30;;;12.60;;
57303;SDS011;43150;50.986;18.208;2023-03-17T02:25:07;23.80;;;12.40;;
57303;SDS011;43150;50.986;18.208;2023-03-17T02:27:34;23.20;;;11.70;;
57303;SDS011;43150;50.986;18.208;2023-03-17T02:30:04;26.80;;;12.50;;
57303;SDS011;43150;50.986;18.208;2023-03-17T02:32:34;26.50;;;12.70;;
57303;SDS011;43150;50.986;18.208;2023-03-17T02:35:00;28.80;;;13.00;;
57303;SDS011;43150;50.986;18.208;2023-03-17T02:37:26;26.70;;;14.70;;
57303;SDS011;43150;50.986;18.208;2023-03-17T02:39:51;32.00;;;14.80;;
57303;SDS011;43150;50.986;18.208;2023-03-17T02:42:18;33.50;;;15.50;;
57303;SDS011;43150;50.986;18.208;2023-03-17T02:44:43;25.00;;;13.00;;
57303;SDS011;43150;50.986;18.208;2023-03-17T02:47:09;25.10;;;14.00;;
57303;SDS011;43150;50.986;18.208;2023-03-17T02:49:39;29.20;;;14.50;;
57303;SDS011;43150;50.986;18.208;2023-03-17T02:52:06;29.80;;;15.40;;
57303;SDS011;43150;50.986;18.208;2023-03-17T02:54:32;36.50;;;16.50;;
57303;SDS011;43150;50.986;18.208;2023-03-17T02:56:58;31.30;;;16.40;;
57303;SDS011;43150;50.986;18.208;2023-03-17T02:59:24;33.80;;;16.30;;
57303;SDS011;43150;50.986;18.208;2023-03-17T03:01:50;33.70;;;16.30;;
57303;SDS011;43150;50.986;18.208;2023-03-17T03:04:16;34.20;;;18.10;;
57303;SDS011;43150;50.986;18.208;2023-03-17T03:06:42;33.40;;;19.10;;
57303;SDS011;43150;50.986;18.208;2023-03-17T03:09:09;36.70;;;17.90;;
57303;SDS011;43150;50.986;18.208;2023-03-17T03:11:36;36.60;;;18.50;;
57303;SDS011;43150;50.986;18.208;2023-03-17T03:14:02;35.60;;;18.20;;
57303;SDS011;43150;50.986;18.208;2023-03-17T03:16:30;37.80;;;18.30;;
57303;SDS011;43150;50.986;18.208;2023-03-17T03:18:56;36.30;;;19.50;;
57303;SDS011;43150;50.986;18.208;2023-03-17T03:21:21;40.90;;;19.40;;
57303;SDS011;43150;50.986;18.208;2023-03-17T03:23:47;36.80;;;18.80;;
57303;SDS011;43150;50.986;18.208;2023-03-17T03:26:13;36.70;;;18.50;;
57303;SDS011;43150;50.986;18.208;2023-03-17T03:28:39;37.10;;;19.60;;
57303;SDS011;43150;50.986;18.208;2023-03-17T03:31:04;36.50;;;19.10;;
57303;SDS011;43150;50.986;18.208;2023-03-17T03:33:30;40.90;;;17.80;;
57303;SDS011;43150;50.986;18.208;2023-03-17T03:35:56;36.20;;;18.60;;
57303;SDS011;43150;50.986;18.208;2023-03-17T03:38:22;36.70;;;19.60;;
57303;SDS011;43150;50.986;18.208;2023-03-17T03:40:48;36.10;;;19.30;;
57303;SDS011;43150;50.986;18.208;2023-03-17T03:43:13;38.90;;;19.90;;
57303;SDS011;43150;50.986;18.208;2023-03-17T03:45:38;37.20;;;18.90;;
57303;SDS011;43150;50.986;18.208;2023-03-17T03:48:05;35.00;;;19.10;;
57303;SDS011;43150;50.986;18.208;2023-03-17T03:50:31;35.30;;;18.90;;
57303;SDS011;43150;50.986;18.208;2023-03-17T03:52:56;35.90;;;19.80;;
57303;SDS011;43150;50.986;18.208;2023-03-17T03:55:23;36.20;;;19.70;;
57303;SDS011;43150;50.986;18.208;2023-03-17T03:57:49;35.20;;;18.00;;
57303;SDS011;43150;50.986;18.208;2023-03-17T04:00:15;32.40;;;18.50;;
57303;SDS011;43150;50.986;18.208;2023-03-17T04:02:42;34.80;;;17.90;;
57303;SDS011;43150;50.986;18.208;2023-03-17T04:05:11;32.70;;;18.70;;
57303;SDS011;43150;50.986;18.208;2023-03-17T04:07:38;39.50;;;19.70;;
57303;SDS011;43150;50.986;18.208;2023-03-17T04:10:06;37.00;;;18.70;;
57303;SDS011;43150;50.986;18.208;2023-03-17T04:12:33;34.80;;;19.60;;
57303;SDS011;43150;50.986;18.208;2023-03-17T04:14:58;40.60;;;20.00;;
57303;SDS011;43150;50.986;18.208;2023-03-17T04:17:24;39.20;;;19.70;;
57303;SDS011;43150;50.986;18.208;2023-03-17T04:19:50;32.50;;;17.80;;
57303;SDS011;43150;50.986;18.208;2023-03-17T04:22:17;32.20;;;19.20;;
57303;SDS011;43150;50.986;18.208;2023-03-17T04:24:43;38.10;;;18.60;;
57303;SDS011;43150;50.986;18.208;2023-03-17T04:27:08;38.00;;;19.10;;
57303;SDS011;43150;50.986;18.208;2023-03-17T04:29:34;34.20;;;18.40;;
57303;SDS011;43150;50.986;18.208;2023-03-17T04:32:01;39.30;;;19.10;;
57303;SDS011;43150;50.986;18.208;2023-03-17T04:34:26;41.20;;;18.90;;
57303;SDS011;43150;50.986;18.208;2023-03-17T04:36:52;43.80;;;17.90;;
57303;SDS011;43150;50.986;18.208;2023-03-17T04:39:18;31.60;;;18.20;;
57303;SDS011;43150;50.986;18.208;2023-03-17T04:41:44;33.40;;;17.90;;
57303;SDS011;43150;50.986;18.208;2023-03-17T04:44:10;35.30;;;19.40;;
57303;SDS011;43150;50.986;18.208;2023-03-17T04:46:36;35.40;;;19.10;;
57303;SDS011;43150;50.986;18.208;2023-03-17T04:49:02;37.10;;;19.60;;
57303;SDS011;43150;50.986;18.208;2023-03-17T04:51:28;31.80;;;18.00;;
57303;SDS011;43150;50.986;18.208;2023-03-17T04:53:54;35.00;;;17.70;;
57303;SDS011;43150;50.986;18.208;2023-03-17T04:56:20;36.30;;;18.60;;
57303;SDS011;43150;50.986;18.208;2023-03-17T04:58:45;35.80;;;18.70;;
57303;SDS011;43150;50.986;18.208;2023-03-17T05:01:11;31.40;;;17.40;;
57303;SDS011;43150;50.986;18.208;2023-03-17T05:03:43;34.80;;;17.40;;
57303;SDS011;43150;50.986;18.208;2023-03-17T05:06:09;35.30;;;17.40;;
57303;SDS011;43150;50.986;18.208;2023-03-17T05:08:35;35.70;;;18.30;;
57303;SDS011;43150;50.986;18.208;2023-03-17T05:11:01;35.70;;;19.30;;
57303;SDS011;43150;50.986;18.208;2023-03-17T05:13:26;33.20;;;17.80;;
57303;SDS011;43150;50.986;18.208;2023-03-17T05:15:53;33.50;;;18.20;;
57303;SDS011;43150;50.986;18.208;2023-03-17T05:18:19;39.30;;;19.70;;
57303;SDS011;43150;50.986;18.208;2023-03-17T05:20:45;37.70;;;19.70;;
57303;SDS011;43150;50.986;18.208;2023-03-17T05:23:11;32.20;;;18.80;;
57303;SDS011;43150;50.986;18.208;2023-03-17T05:25:37;35.60;;;20.10;;
57303;SDS011;43150;50.986;18.208;2023-03-17T05:28:08;34.50;;;19.90;;
57303;SDS011;43150;50.986;18.208;2023-03-17T05:30:34;39.60;;;19.50;;
57303;SDS011;43150;50.986;18.208;2023-03-17T05:33:03;39.00;;;19.00;;
57303;SDS011;43150;50.986;18.208;2023-03-17T05:35:29;31.60;;;18.60;;
57303;SDS011;43150;50.986;18.208;2023-03-17T05:37:57;33.80;;;19.10;;
57303;SDS011;43150;50.986;18.208;2023-03-17T05:40:22;41.70;;;17.80;;
57303;SDS011;43150;50.986;18.208;2023-03-17T05:42:49;33.60;;;18.30;;
57303;SDS011;43150;50.986;18.208;2023-03-17T05:45:15;30.50;;;18.80;;
57303;SDS011;43150;50.986;18.208;2023-03-17T05:47:41;34.40;;;19.50;;
57303;SDS011;43150;50.986;18.208;2023-03-17T05:50:08;31.30;;;18.80;;
57303;SDS011;43150;50.986;18.208;2023-03-17T05:52:34;31.70;;;18.90;;
57303;SDS011;43150;50.986;18.208;2023-03-17T05:54:59;32.50;;;18.70;;
57303;SDS011;43150;50.986;18.208;2023-03-17T05:57:26;35.20;;;20.70;;
57303;SDS011;43150;50.986;18.208;2023-03-17T05:59:51;37.20;;;19.70;;
57303;SDS011;43150;50.986;18.208;2023-03-17T06:02:17;31.90;;;24.10;;
57303;SDS011;43150;50.986;18.208;2023-03-17T06:04:43;39.90;;;28.00;;
57303;SDS011;43150;50.986;18.208;2023-03-17T06:07:09;35.30;;;26.00;;
57303;SDS011;43150;50.986;18.208;2023-03-17T06:09:36;33.30;;;25.60;;
57303;SDS011;43150;50.986;18.208;2023-03-17T06:12:15;35.10;;;26.00;;
57303;SDS011;43150;50.986;18.208;2023-03-17T06:14:41;32.30;;;24.90;;
57303;SDS011;43150;50.986;18.208;2023-03-17T06:17:06;34.80;;;25.50;;
57303;SDS011;43150;50.986;18.208;2023-03-17T06:19:33;33.70;;;24.80;;
57303;SDS011;43150;50.986;18.208;2023-03-17T06:21:59;34.30;;;26.30;;
57303;SDS011;43150;50.986;18.208;2023-03-17T06:24:24;38.20;;;31.20;;
57303;SDS011;43150;50.986;18.208;2023-03-17T06:26:50;41.10;;;30.50;;
57303;SDS011;43150;50.986;18.208;2023-03-17T06:29:17;40.10;;;30.10;;
57303;SDS011;43150;50.986;18.208;2023-03-17T06:31:42;37.90;;;29.90;;
57303;SDS011;43150;50.986;18.208;2023-03-17T06:34:15;46.60;;;29.40;;
57303;SDS011;43150;50.986;18.208;2023-03-17T06:36:41;38.10;;;29.20;;
57303;SDS011;43150;50.986;18.208;2023-03-17T06:39:07;37.20;;;29.20;;
57303;SDS011;43150;50.986;18.208;2023-03-17T06:41:33;34.30;;;28.80;;
57303;SDS011;43150;50.986;18.208;2023-03-17T06:44:00;37.20;;;28.80;;
57303;SDS011;43150;50.986;18.208;2023-03-17T06:46:26;36.10;;;28.00;;
57303;SDS011;43150;50.986;18.208;2023-03-17T06:48:51;35.50;;;25.00;;
57303;SDS011;43150;50.986;18.208;2023-03-17T06:51:18;27.20;;;21.30;;
57303;SDS011;43150;50.986;18.208;2023-03-17T06:53:43;28.70;;;22.00;;
57303;SDS011;43150;50.986;18.208;2023-03-17T06:56:09;29.20;;;22.60;;
57303;SDS011;43150;50.986;18.208;2023-03-17T06:58:34;24.80;;;19.60;;
57303;SDS011;43150;50.986;18.208;2023-03-17T07:01:00;27.00;;;20.30;;
57303;SDS011;43150;50.986;18.208;2023-03-17T07:03:25;27.00;;;19.20;;
57303;SDS011;43150;50.986;18.208;2023-03-17T07:05:51;27.60;;;19.80;;
57303;SDS011;43150;50.986;18.208;2023-03-17T07:08:17;22.70;;;17.10;;
57303;SDS011;43150;50.986;18.208;2023-03-17T07:10:43;23.20;;;15.70;;
57303;SDS011;43150;50.986;18.208;2023-03-17T07:13:10;18.50;;;13.50;;
57303;SDS011;43150;50.986;18.208;2023-03-17T07:15:36;18.30;;;13.90;;
57303;SDS011;43150;50.986;18.208;2023-03-17T07:18:02;19.50;;;14.50;;
57303;SDS011;43150;50.986;18.208;2023-03-17T07:20:30;18.40;;;13.50;;
57303;SDS011;43150;50.986;18.208;2023-03-17T07:22:56;19.00;;;13.70;;
57303;SDS011;43150;50.986;18.208;2023-03-17T07:25:22;19.80;;;13.90;;
57303;SDS011;43150;50.986;18.208;2023-03-17T07:27:48;21.20;;;14.50;;
57303;SDS011;43150;50.986;18.208;2023-03-17T07:30:13;18.80;;;14.10;;
57303;SDS011;43150;50.986;18.208;2023-03-17T07:32:46;20.10;;;15.30;;
57303;SDS011;43150;50.986;18.208;2023-03-17T07:35:14;19.10;;;15.40;;
57303;SDS011;43150;50.986;18.208;2023-03-17T07:37:40;21.40;;;15.00;;
57303;SDS011;43150;50.986;18.208;2023-03-17T07:40:07;21.10;;;15.10;;
57303;SDS011;43150;50.986;18.208;2023-03-17T07:42:34;18.50;;;14.50;;
57303;SDS011;43150;50.986;18.208;2023-03-17T07:44:59;17.80;;;13.70;;
57303;SDS011;43150;50.986;18.208;2023-03-17T07:47:25;18.40;;;14.10;;
57303;SDS011;43150;50.986;18.208;2023-03-17T07:49:52;17.00;;;13.50;;
57303;SDS011;43150;50.986;18.208;2023-03-17T07:52:18;17.70;;;13.20;;
57303;SDS011;43150;50.986;18.208;2023-03-17T07:54:43;17.10;;;13.20;;
57303;SDS011;43150;50.986;18.208;2023-03-17T07:57:09;18.40;;;14.20;;
57303;SDS011;43150;50.986;18.208;2023-03-17T07:59:35;17.90;;;13.00;;
57303;SDS011;43150;50.986;18.208;2023-03-17T08:02:02;18.00;;;14.60;;
57303;SDS011;43150;50.986;18.208;2023-03-17T08:04:28;20.00;;;14.50;;
57303;SDS011;43150;50.986;18.208;2023-03-17T08:06:53;19.00;;;12.90;;
57303;SDS011;43150;50.986;18.208;2023-03-17T08:09:19;17.30;;;13.00;;
57303;SDS011;43150;50.986;18.208;2023-03-17T08:11:46;19.30;;;13.10;;
57303;SDS011;43150;50.986;18.208;2023-03-17T08:14:12;15.50;;;11.50;;
57303;SDS011;43150;50.986;18.208;2023-03-17T08:16:38;14.70;;;11.70;;
57303;SDS011;43150;50.986;18.208;2023-03-17T08:19:03;18.70;;;12.90;;
57303;SDS011;43150;50.986;18.208;2023-03-17T08:21:30;16.90;;;11.30;;
57303;SDS011;43150;50.986;18.208;2023-03-17T08:23:56;17.80;;;11.30;;
57303;SDS011;43150;50.986;18.208;2023-03-17T08:26:21;15.80;;;11.30;;
57303;SDS011;43150;50.986;18.208;2023-03-17T08:28:47;16.60;;;11.30;;
57303;SDS011;43150;50.986;18.208;2023-03-17T08:31:20;16.80;;;11.20;;
57303;SDS011;43150;50.986;18.208;2023-03-17T08:33:50;18.30;;;11.90;;
57303;SDS011;43150;50.986;18.208;2023-03-17T08:36:17;15.00;;;11.30;;
57303;SDS011;43150;50.986;18.208;2023-03-17T08:38:43;16.40;;;11.50;;
57303;SDS011;43150;50.986;18.208;2023-03-17T08:41:10;16.50;;;11.80;;
57303;SDS011;43150;50.986;18.208;2023-03-17T08:43:37;15.70;;;12.10;;
57303;SDS011;43150;50.986;18.208;2023-03-17T08:46:07;16.90;;;11.80;;
57303;SDS011;43150;50.986;18.208;2023-03-17T08:48:33;16.50;;;11.70;;
57303;SDS011;43150;50.986;18.208;2023-03-17T08:50:59;16.80;;;10.90;;
57303;SDS011;43150;50.986;18.208;2023-03-17T08:53:25;14.30;;;10.10;;
57303;SDS011;43150;50.986;18.208;2023-03-17T08:55:54;13.90;;;10.10;;
57303;SDS011;43150;50.986;18.208;2023-03-17T08:58:21;15.30;;;10.20;;
57303;SDS011;43150;50.986;18.208;2023-03-17T09:00:53;12.20;;;8.80;;
57303;SDS011;43150;50.986;18.208;2023-03-17T09:03:22;13.10;;;8.60;;
57303;SDS011;43150;50.986;18.208;2023-03-17T09:05:48;9.70;;;7.80;;
57303;SDS011;43150;50.986;18.208;2023-03-17T09:08:15;12.70;;;9.60;;
57303;SDS011;43150;50.986;18.208;2023-03-17T09:10:41;12.60;;;9.40;;
57303;SDS011;43150;50.986;18.208;2023-03-17T09:13:07;15.70;;;11.20;;
57303;SDS011;43150;50.986;18.208;2023-03-17T09:15:33;14.00;;;9.20;;
57303;SDS011;43150;50.986;18.208;2023-03-17T09:17:59;16.80;;;10.50;;
57303;SDS011;43150;50.986;18.208;2023-03-17T09:20:25;10.80;;;7.90;;
57303;SDS011;43150;50.986;18.208;2023-03-17T09:22:54;11.10;;;7.80;;
57303;SDS011;43150;50.986;18.208;2023-03-17T09:25:20;12.50;;;7.90;;
57303;SDS011;43150;50.986;18.208;2023-03-17T09:27:46;12.50;;;7.40;;
57303;SDS011;43150;50.986;18.208;2023-03-17T09:30:11;12.40;;;7.70;;
57303;SDS011;43150;50.986;18.208;2023-03-17T09:32:38;11.50;;;7.90;;
57303;SDS011;43150;50.986;18.208;2023-03-17T09:35:04;11.20;;;7.80;;
57303;SDS011;43150;50.986;18.208;2023-03-17T09:37:29;10.70;;;8.10;;
57303;SDS011;43150;50.986;18.208;2023-03-17T09:39:55;13.30;;;8.30;;
57303;SDS011;43150;50.986;18.208;2023-03-17T09:45:02;12.50;;;8.50;;
57303;SDS011;43150;50.986;18.208;2023-03-17T09:49:59;11.80;;;8.20;;
57303;SDS011;43150;50.986;18.208;2023-03-17T09:52:28;11.00;;;8.00;;
57303;SDS011;43150;50.986;18.208;2023-03-17T09:54:54;10.40;;;7.30;;
57303;SDS011;43150;50.986;18.208;2023-03-17T09:57:37;12.70;;;8.90;;
57303;SDS011;43150;50.986;18.208;2023-03-17T10:00:11;12.00;;;8.40;;
57303;SDS011;43150;50.986;18.208;2023-03-17T10:02:38;12.50;;;8.50;;
57303;SDS011;43150;50.986;18.208;2023-03-17T10:15:40;11.60;;;8.20;;
57303;SDS011;43150;50.986;18.208;2023-03-17T10:18:12;13.50;;;8.20;;
57303;SDS011;43150;50.986;18.208;2023-03-17T10:20:43;11.40;;;8.40;;
57303;SDS011;43150;50.986;18.208;2023-03-17T10:23:12;11.00;;;8.10;;
57303;SDS011;43150;50.986;18.208;2023-03-17T10:25:39;12.60;;;8.50;;
57303;SDS011;43150;50.986;18.208;2023-03-17T10:31:14;12.50;;;8.80;;
57303;SDS011;43150;50.986;18.208;2023-03-17T10:33:40;12.00;;;8.30;;
57303;SDS011;43150;50.986;18.208;2023-03-17T10:36:07;11.70;;;8.20;;
57303;SDS011;43150;50.986;18.208;2023-03-17T10:38:34;11.90;;;7.90;;
57303;SDS011;43150;50.986;18.208;2023-03-17T10:41:04;13.00;;;8.00;;
57303;SDS011;43150;50.986;18.208;2023-03-17T10:43:34;13.20;;;7.90;;
57303;SDS011;43150;50.986;18.208;2023-03-17T10:46:02;10.10;;;7.80;;
57303;SDS011;43150;50.986;18.208;2023-03-17T10:48:33;13.70;;;9.10;;
57303;SDS011;43150;50.986;18.208;2023-03-17T10:50:59;11.10;;;8.80;;
57303;SDS011;43150;50.986;18.208;2023-03-17T10:53:30;12.30;;;8.20;;
57303;SDS011;43150;50.986;18.208;2023-03-17T10:56:09;11.20;;;8.20;;
57303;SDS011;43150;50.986;18.208;2023-03-17T10:58:38;12.80;;;8.60;;
57303;SDS011;43150;50.986;18.208;2023-03-17T11:01:07;12.00;;;8.20;;
57303;SDS011;43150;50.986;18.208;2023-03-17T11:03:39;13.30;;;8.50;;
57303;SDS011;43150;50.986;18.208;2023-03-17T11:06:12;11.70;;;8.80;;
57303;SDS011;43150;50.986;18.208;2023-03-17T11:08:53;13.00;;;8.20;;
57303;SDS011;43150;50.986;18.208;2023-03-17T11:16:19;11.60;;;7.80;;
57303;SDS011;43150;50.986;18.208;2023-03-17T11:21:21;11.00;;;8.60;;
57303;SDS011;43150;50.986;18.208;2023-03-17T11:23:51;13.20;;;8.80;;
57303;SDS011;43150;50.986;18.208;2023-03-17T11:39:25;10.70;;;7.50;;
57303;SDS011;43150;50.986;18.208;2023-03-17T11:44:22;12.00;;;7.20;;
57303;SDS011;43150;50.986;18.208;2023-03-17T11:46:56;10.40;;;6.70;;
57303;SDS011;43150;50.986;18.208;2023-03-17T11:49:30;11.00;;;6.60;;
57303;SDS011;43150;50.986;18.208;2023-03-17T11:52:08;7.50;;;5.00;;
57303;SDS011;43150;50.986;18.208;2023-03-17T11:57:11;8.70;;;5.60;;
57303;SDS011;43150;50.986;18.208;2023-03-17T12:07:32;13.10;;;8.30;;
57303;SDS011;43150;50.986;18.208;2023-03-17T12:12:47;10.00;;;7.50;;
57303;SDS011;43150;50.986;18.208;2023-03-17T12:15:25;13.10;;;9.50;;
57303;SDS011;43150;50.986;18.208;2023-03-17T12:17:57;11.20;;;8.00;;
57303;SDS011;43150;50.986;18.208;2023-03-17T12:20:28;11.60;;;8.40;;
57303;SDS011;43150;50.986;18.208;2023-03-17T12:23:00;12.30;;;9.40;;
57303;SDS011;43150;50.986;18.208;2023-03-17T12:25:31;10.00;;;7.00;;
57303;SDS011;43150;50.986;18.208;2023-03-17T12:28:05;9.80;;;6.40;;
57303;SDS011;43150;50.986;18.208;2023-03-17T12:35:36;9.80;;;6.60;;
57303;SDS011;43150;50.986;18.208;2023-03-17T12:38:17;7.60;;;5.60;;
57303;SDS011;43150;50.986;18.208;2023-03-17T12:46:03;6.40;;;4.80;;
57303;SDS011;43150;50.986;18.208;2023-03-17T12:53:53;7.60;;;4.70;;
57303;SDS011;43150;50.986;18.208;2023-03-17T12:56:29;9.60;;;5.30;;
57303;SDS011;43150;50.986;18.208;2023-03-17T12:59:02;12.10;;;5.80;;
57303;SDS011;43150;50.986;18.208;2023-03-17T13:01:29;8.50;;;4.60;;
57303;SDS011;43150;50.986;18.208;2023-03-17T13:06:22;7.20;;;4.90;;
57303;SDS011;43150;50.986;18.208;2023-03-17T13:08:49;9.00;;;6.30;;
57303;SDS011;43150;50.986;18.208;2023-03-17T13:16:32;8.40;;;5.60;;
57303;SDS011;43150;50.986;18.208;2023-03-17T13:19:18;7.80;;;5.40;;
57303;SDS011;43150;50.986;18.208;2023-03-17T13:21:50;9.90;;;5.40;;
57303;SDS011;43150;50.986;18.208;2023-03-17T13:26:50;8.00;;;5.90;;
57303;SDS011;43150;50.986;18.208;2023-03-17T13:29:26;10.30;;;6.40;;
57303;SDS011;43150;50.986;18.208;2023-03-17T13:34:52;8.50;;;5.70;;
57303;SDS011;43150;50.986;18.208;2023-03-17T13:40:06;11.10;;;7.80;;
57303;SDS011;43150;50.986;18.208;2023-03-17T13:47:41;6.90;;;4.60;;
57303;SDS011;43150;50.986;18.208;2023-03-17T13:50:11;10.00;;;7.00;;
57303;SDS011;43150;50.986;18.208;2023-03-17T13:52:39;7.50;;;5.10;;
57303;SDS011;43150;50.986;18.208;2023-03-17T14:00:31;9.80;;;6.20;;
57303;SDS011;43150;50.986;18.208;2023-03-17T14:03:02;10.40;;;6.40;;
57303;SDS011;43150;50.986;18.208;2023-03-17T14:05:30;9.70;;;7.80;;
57303;SDS011;43150;50.986;18.208;2023-03-17T14:10:40;9.40;;;6.40;;
57303;SDS011;43150;50.986;18.208;2023-03-17T14:13:12;26.20;;;18.60;;
57303;SDS011;43150;50.986;18.208;2023-03-17T14:15:47;10.70;;;8.20;;
57303;SDS011;43150;50.986;18.208;2023-03-17T14:18:15;12.10;;;7.60;;
57303;SDS011;43150;50.986;18.208;2023-03-17T14:20:55;11.80;;;6.20;;
57303;SDS011;43150;50.986;18.208;2023-03-17T14:23:21;8.90;;;6.30;;
57303;SDS011;43150;50.986;18.208;2023-03-17T14:25:47;10.50;;;8.20;;
57303;SDS011;43150;50.986;18.208;2023-03-17T14:28:18;13.50;;;7.00;;
57303;SDS011;43150;50.986;18.208;2023-03-17T14:30:49;10.00;;;7.00;;
57303;SDS011;43150;50.986;18.208;2023-03-17T14:35:42;8.60;;;6.50;;
57303;SDS011;43150;50.986;18.208;2023-03-17T14:38:18;9.90;;;6.30;;
57303;SDS011;43150;50.986;18.208;2023-03-17T14:40:44;11.60;;;6.70;;
57303;SDS011;43150;50.986;18.208;2023-03-17T14:43:09;15.50;;;9.20;;
57303;SDS011;43150;50.986;18.208;2023-03-17T14:48:13;9.90;;;7.10;;
57303;SDS011;43150;50.986;18.208;2023-03-17T14:51:14;10.10;;;6.20;;
57303;SDS011;43150;50.986;18.208;2023-03-17T14:53:38;9.50;;;6.60;;
57303;SDS011;43150;50.986;18.208;2023-03-17T14:58:30;9.10;;;6.00;;
57303;SDS011;43150;50.986;18.208;2023-03-17T15:01:03;8.40;;;6.10;;
57303;SDS011;43150;50.986;18.208;2023-03-17T15:03:30;12.70;;;8.10;;
57303;SDS011;43150;50.986;18.208;2023-03-17T15:06:04;12.90;;;7.80;;
57303;SDS011;43150;50.986;18.208;2023-03-17T15:08:41;14.00;;;9.60;;
57303;SDS011;43150;50.986;18.208;2023-03-17T15:11:13;13.30;;;8.30;;
57303;SDS011;43150;50.986;18.208;2023-03-17T15:16:11;12.50;;;9.00;;
57303;SDS011;43150;50.986;18.208;2023-03-17T15:18:39;13.70;;;9.10;;
57303;SDS011;43150;50.986;18.208;2023-03-17T15:21:18;15.90;;;11.90;;
57303;SDS011;43150;50.986;18.208;2023-03-17T15:23:45;16.60;;;11.20;;
57303;SDS011;43150;50.986;18.208;2023-03-17T15:26:19;13.90;;;9.90;;
57303;SDS011;43150;50.986;18.208;2023-03-17T15:28:46;15.10;;;9.90;;
57303;SDS011;43150;50.986;18.208;2023-03-17T15:31:12;17.20;;;10.90;;
57303;SDS011;43150;50.986;18.208;2023-03-17T15:33:39;12.60;;;9.30;;
57303;SDS011;43150;50.986;18.208;2023-03-17T15:36:05;20.30;;;13.60;;
57303;SDS011;43150;50.986;18.208;2023-03-17T15:38:32;14.60;;;11.60;;
57303;SDS011;43150;50.986;18.208;2023-03-17T15:40:58;19.10;;;14.40;;
57303;SDS011;43150;50.986;18.208;2023-03-17T15:43:27;18.70;;;15.10;;
57303;SDS011;43150;50.986;18.208;2023-03-17T15:45:53;14.80;;;12.10;;
57303;SDS011;43150;50.986;18.208;2023-03-17T15:48:20;12.20;;;8.70;;
57303;SDS011;43150;50.986;18.208;2023-03-17T15:50:50;14.40;;;9.80;;
57303;SDS011;43150;50.986;18.208;2023-03-17T15:53:17;13.80;;;11.20;;
57303;SDS011;43150;50.986;18.208;2023-03-17T15:55:42;13.60;;;9.90;;
57303;SDS011;43150;50.986;18.208;2023-03-17T15:58:08;12.80;;;9.30;;
57303;SDS011;43150;50.986;18.208;2023-03-17T16:00:34;16.30;;;10.90;;
57303;SDS011;43150;50.986;18.208;2023-03-17T16:03:24;15.90;;;11.30;;
57303;SDS011;43150;50.986;18.208;2023-03-17T16:05:46;18.40;;;12.80;;
57303;SDS011;43150;50.986;18.208;2023-03-17T16:08:12;16.60;;;11.50;;
57303;SDS011;43150;50.986;18.208;2023-03-17T16:10:38;18.80;;;10.10;;
57303;SDS011;43150;50.986;18.208;2023-03-17T16:13:04;14.60;;;9.00;;